createdAt,value
2022-11-15T00:02:30.235Z,9.60
2022-11-15T00:06:34.069Z,9.58
2022-11-15T00:10:37.537Z,9.55
2022-11-15T00:14:40.969Z,9.49
2022-11-15T00:18:50.260Z,9.38
2022-11-15T00:22:53.732Z,9.27
2022-11-15T00:26:58.732Z,9.15
2022-11-15T00:31:06.625Z,9.04
2022-11-15T00:35:11.164Z,8.91
2022-11-15T00:39:14.665Z,8.80
2022-11-15T00:43:18.126Z,8.69
2022-11-15T00:47:21.492Z,8.56
2022-11-15T00:51:25.959Z,8.52
2022-11-15T00:55:29.293Z,8.46
2022-11-15T00:59:32.804Z,8.41
2022-11-15T01:03:36.253Z,8.31
2022-11-15T01:07:40.882Z,8.34
2022-11-15T01:11:44.318Z,8.29
2022-11-15T01:15:48.262Z,8.25
2022-11-15T01:19:51.495Z,8.24
2022-11-15T01:23:58.003Z,8.24
2022-11-15T01:28:01.186Z,8.18
2022-11-15T01:32:05.031Z,8.27
2022-11-15T01:36:09.673Z,8.32
2022-11-15T01:40:15.110Z,8.36
2022-11-15T01:44:45.536Z,8.46
2022-11-15T01:48:49.045Z,8.46
2022-11-15T01:52:52.286Z,8.53
2022-11-15T01:57:01.690Z,8.52
2022-11-15T02:01:04.948Z,8.48
2022-11-15T02:05:09.222Z,8.35
2022-11-15T02:09:13.425Z,8.33
2022-11-15T02:13:20.433Z,8.24
2022-11-15T02:17:41.941Z,8.21
2022-11-15T02:21:54.580Z,8.17
2022-11-15T02:26:15.567Z,8.11
2022-11-15T02:30:43.891Z,7.98
2022-11-15T02:34:53.417Z,7.84
2022-11-15T02:39:04.681Z,7.71
2022-11-15T02:43:28.861Z,7.59
2022-11-15T02:47:40.042Z,7.54
2022-11-15T02:51:47.318Z,7.52
2022-11-15T02:55:54.074Z,7.63
2022-11-15T03:00:09.347Z,7.70
2022-11-15T03:04:26.446Z,7.78
2022-11-15T03:08:34.855Z,7.85
2022-11-15T03:12:45.208Z,7.91
2022-11-15T03:16:52.093Z,7.89
2022-11-15T03:20:58.248Z,7.93
2022-11-15T03:25:06.255Z,8.02
2022-11-15T03:29:15.468Z,8.02
2022-11-15T03:33:19.744Z,8.02
2022-11-15T03:37:31.649Z,8.07
2022-11-15T03:41:42.661Z,8.13
2022-11-15T03:45:53.951Z,8.18
2022-11-15T03:50:02.984Z,8.22
2022-11-15T03:54:08.238Z,8.26
2022-11-15T03:58:11.673Z,8.26
2022-11-15T04:02:15.644Z,8.25
2022-11-15T04:06:19.296Z,8.24
2022-11-15T04:10:23.723Z,8.22
2022-11-15T04:14:27.339Z,8.20
2022-11-15T04:18:30.899Z,8.16
2022-11-15T04:22:51.854Z,8.13
2022-11-15T04:26:56.252Z,8.09
2022-11-15T04:31:00.095Z,8.06
2022-11-15T04:35:03.616Z,8.00
2022-11-15T04:39:07.117Z,7.95
2022-11-15T04:43:11.925Z,7.89
2022-11-15T04:47:14.922Z,7.79
2022-11-15T04:51:18.644Z,7.68
2022-11-15T04:55:22.563Z,7.57
2022-11-15T04:59:27.489Z,7.43
2022-11-15T05:03:48.202Z,7.34
2022-11-15T05:07:51.225Z,7.28
2022-11-15T05:11:54.615Z,7.27
2022-11-15T05:15:59.509Z,7.31
2022-11-15T05:20:02.527Z,7.37
2022-11-15T05:24:06.622Z,7.47
2022-11-15T05:28:09.693Z,7.54
2022-11-15T05:32:15.224Z,7.66
2022-11-15T05:36:23.917Z,7.77
2022-11-15T05:40:28.141Z,7.82
2022-11-15T05:44:31.787Z,7.92
2022-11-15T05:48:37.499Z,7.97
2022-11-15T05:52:41.250Z,8.02
2022-11-15T05:56:45.165Z,8.09
2022-11-15T06:00:49.270Z,8.16
2022-11-15T06:04:54.145Z,8.23
2022-11-15T06:08:57.352Z,8.30
2022-11-15T06:13:01.177Z,8.37
2022-11-15T06:17:08.655Z,8.46
2022-11-15T06:21:16.200Z,8.54
2022-11-15T06:25:19.258Z,8.57
2022-11-15T06:29:22.758Z,8.62
2022-11-15T06:33:25.760Z,8.66
2022-11-15T06:37:30.817Z,8.69
2022-11-15T06:41:36.604Z,8.74
2022-11-15T06:45:39.688Z,8.79
2022-11-15T06:49:42.672Z,8.82
2022-11-15T06:53:47.703Z,8.85
2022-11-15T06:57:52.138Z,8.87
2022-11-15T07:01:55.198Z,8.91
2022-11-15T07:06:06.628Z,8.94
2022-11-15T07:10:11.931Z,9.00
2022-11-15T07:14:15.438Z,9.03
2022-11-15T07:18:18.876Z,9.07
2022-11-15T07:22:22.486Z,9.09
2022-11-15T07:26:27.003Z,9.11
2022-11-15T07:30:30.460Z,9.11
2022-11-15T07:34:33.645Z,9.14
2022-11-15T07:38:42.532Z,9.18
2022-11-15T07:42:57.372Z,9.24
2022-11-15T07:47:01.729Z,9.29
2022-11-15T07:51:09.899Z,9.31
2022-11-15T07:55:16.587Z,9.35
2022-11-15T07:59:21.580Z,9.35
2022-11-15T08:03:25.461Z,9.38
2022-11-15T08:07:32.245Z,9.40
2022-11-15T08:11:35.430Z,9.45
2022-11-15T08:15:40.682Z,9.52
2022-11-15T08:19:44.300Z,9.58
2022-11-15T08:23:47.648Z,9.67
2022-11-15T08:27:54.325Z,9.75
2022-11-15T08:31:59.165Z,9.80
2022-11-15T08:36:03.316Z,9.82
2022-11-15T08:40:08.509Z,9.86
2022-11-15T08:44:11.609Z,9.90
2022-11-15T08:48:16.704Z,9.93
2022-11-15T08:52:20.564Z,9.95
2022-11-15T08:56:23.664Z,9.99
2022-11-15T09:00:27.577Z,10.03
2022-11-15T09:04:32.769Z,10.07
2022-11-15T09:08:51.590Z,10.09
2022-11-15T09:12:55.203Z,10.12
2022-11-15T09:16:58.881Z,10.14
2022-11-15T09:21:03.960Z,10.16
2022-11-15T09:25:11.154Z,10.15
2022-11-15T09:29:14.688Z,10.16
2022-11-15T09:33:17.813Z,10.16
2022-11-15T09:37:22.657Z,10.19
2022-11-15T09:41:41.423Z,10.21
2022-11-15T09:45:59.024Z,10.26
2022-11-15T09:50:04.669Z,10.32
2022-11-15T09:58:51.207Z,10.48
2022-11-15T10:03:10.698Z,10.58
2022-11-15T10:07:20.773Z,10.64
2022-11-15T10:11:37.913Z,10.71
2022-11-15T10:15:46.375Z,10.78
2022-11-15T10:20:05.342Z,10.84
2022-11-15T10:24:14.735Z,10.91
2022-11-15T10:28:24.390Z,10.99
2022-11-15T10:32:28.589Z,11.04
2022-11-15T10:36:31.686Z,11.10
2022-11-15T10:40:35.536Z,11.14
2022-11-15T10:44:45.382Z,11.19
2022-11-15T10:48:49.003Z,11.21
2022-11-15T10:52:52.359Z,11.25
2022-11-15T10:56:57.977Z,11.30
2022-11-15T11:01:12.528Z,11.36
2022-11-15T11:05:30.605Z,11.42
2022-11-15T11:09:36.754Z,11.44
2022-11-15T11:13:42.026Z,11.43
2022-11-15T11:18:00.322Z,11.43
2022-11-15T11:22:12.873Z,11.42
2022-11-15T11:26:37.890Z,11.39
2022-11-15T11:30:50.203Z,11.38
2022-11-15T11:35:01.414Z,11.33
2022-11-15T11:39:22.475Z,11.29
2022-11-15T11:43:32.962Z,11.21
2022-11-15T11:47:42.978Z,11.17
2022-11-15T11:51:54.098Z,11.12
2022-11-15T11:56:01.431Z,11.09
2022-11-15T12:00:15.338Z,11.09
2022-11-15T12:04:21.608Z,11.11
2022-11-15T12:08:51.455Z,11.13
2022-11-15T12:13:03.595Z,11.15
2022-11-15T12:17:07.311Z,11.14
2022-11-15T12:21:18.339Z,11.14
2022-11-15T12:25:25.284Z,11.14
2022-11-15T12:29:36.741Z,10.63
2022-11-15T12:33:43.495Z,11.18
2022-11-15T12:37:58.850Z,11.21
2022-11-15T12:42:35.190Z,11.24
2022-11-15T12:47:07.108Z,11.28
2022-11-15T12:51:10.148Z,11.29
2022-11-15T12:55:34.414Z,11.31
2022-11-15T12:59:56.042Z,11.28
2022-11-15T13:04:25.316Z,11.19
2022-11-15T13:08:52.013Z,11.20
2022-11-15T13:12:58.701Z,11.14
2022-11-15T13:17:02.119Z,11.13
2022-11-15T13:21:39.386Z,11.09
2022-11-15T13:25:57.884Z,11.02
2022-11-15T13:30:18.800Z,11.03
2022-11-15T13:39:03.483Z,11.03
2022-11-15T18:39:46.523Z,10.22
2022-11-15T18:43:52.660Z,10.22
2022-11-15T18:47:56.130Z,10.23
2022-11-15T18:51:59.777Z,10.26
2022-11-15T18:56:05.539Z,10.28
2022-11-15T19:00:10.979Z,10.29
2022-11-15T19:04:16.018Z,10.31
2022-11-15T19:08:19.674Z,10.34
2022-11-15T19:12:24.634Z,10.35
2022-11-15T19:16:29.278Z,10.37
2022-11-15T19:20:33.281Z,10.37
2022-11-15T19:24:37.103Z,10.38
2022-11-15T19:28:41.872Z,10.39
2022-11-15T19:32:47.167Z,10.39
2022-11-15T19:36:50.670Z,10.40
2022-11-15T19:41:00.049Z,10.42
2022-11-15T19:45:05.673Z,10.44
2022-11-15T19:49:12.278Z,10.44
2022-11-15T19:53:15.458Z,10.46
2022-11-15T19:57:21.289Z,10.47
2022-11-15T20:01:29.674Z,10.48
2022-11-15T20:05:32.890Z,10.49
2022-11-15T20:09:37.478Z,10.50
2022-11-15T20:13:43.442Z,10.52
2022-11-15T20:17:52.169Z,10.54
2022-11-15T20:21:55.485Z,10.54
2022-11-15T20:25:59.302Z,10.54
2022-11-15T20:30:03.021Z,10.56
2022-11-15T20:34:08.090Z,10.57
2022-11-15T20:38:12.082Z,10.57
2022-11-15T20:42:15.969Z,10.58
2022-11-15T20:46:20.137Z,10.58
2022-11-15T20:50:42.191Z,10.60
2022-11-15T20:54:46.460Z,10.64
2022-11-15T20:58:51.603Z,10.60
2022-11-15T21:02:56.384Z,10.57
2022-11-15T21:07:01.874Z,10.55
2022-11-15T21:11:22.974Z,10.51
2022-11-15T21:15:26.216Z,10.50
2022-11-15T21:19:35.543Z,10.50
2022-11-15T21:23:42.258Z,10.49
2022-11-15T21:27:46.636Z,10.49
2022-11-15T21:31:51.930Z,10.45
2022-11-15T21:35:57.087Z,10.41
2022-11-15T21:40:02.698Z,10.35
2022-11-15T21:44:07.814Z,10.29
2022-11-15T21:48:11.797Z,10.25
2022-11-15T21:52:15.461Z,10.22
2022-11-15T21:56:20.386Z,10.19
2022-11-15T22:00:41.775Z,10.16
2022-11-15T22:04:45.509Z,10.12
2022-11-15T22:08:49.307Z,10.11
2022-11-15T22:12:53.741Z,10.10
2022-11-15T22:16:56.900Z,10.07
2022-11-15T22:21:02.192Z,10.06
2022-11-15T22:25:05.911Z,10.04
2022-11-15T22:29:10.944Z,10.01
2022-11-15T22:33:14.151Z,9.99
2022-11-15T22:37:21.300Z,9.98
2022-11-15T22:41:25.055Z,9.97
2022-11-15T22:45:30.104Z,9.97
2022-11-15T22:49:33.329Z,9.93
2022-11-15T22:53:36.956Z,9.93
2022-11-15T22:57:40.530Z,9.90
2022-11-15T23:01:45.487Z,9.90
2022-11-15T23:05:49.486Z,9.87
2022-11-15T23:09:55.470Z,9.85
2022-11-15T23:13:58.004Z,9.84
2022-11-15T23:18:02.416Z,9.84
2022-11-15T23:22:23.433Z,9.82
2022-11-15T23:26:26.974Z,9.80
2022-11-15T23:30:47.943Z,9.79
2022-11-15T23:34:52.451Z,9.79
2022-11-15T23:38:56.393Z,9.77
2022-11-15T23:43:00.396Z,9.76
2022-11-15T23:47:03.559Z,9.75
2022-11-15T23:51:10.530Z,9.73
2022-11-15T23:55:13.576Z,9.73
2022-11-15T23:59:17.162Z,9.72
